Time;durP1;ratioP1;P1;durP2;ratioP2;P2;SDS_P1;SDS_P2;PMS_P1;PMS_P2;Temp;Humidity;BMP_temperature;BMP_pressure;BME280_temperature;BME280_humidity;BME280_pressure;Samples;Min_cycle;Max_cycle;Signal;HPM_P1;HPM_P2
2022/05/04 00:00:44;;;;;;;22.88;12.65;;;;;;;12.56;88.42;98762.22;5109332;28;20032;-90
2022/05/04 00:03:11;;;;;;;24.73;12.98;;;;;;;12.65;88.83;98784.09;5109503;28;20071;-90
2022/05/04 00:05:38;;;;;;;22.33;12.65;;;;;;;12.63;88.77;98774.41;5108952;28;20075;-91
2022/05/04 00:08:05;;;;;;;23.08;12.27;;;;;;;12.47;88.75;98750.06;5109385;28;20056;-90
2022/05/04 00:10:31;;;;;;;24.00;13.30;;;;;;;12.60;88.14;98775.41;5109400;28;20028;-92
2022/05/04 00:12:57;;;;;;;26.30;13.20;;;;;;;12.51;88.70;98781.03;5109022;28;20166;-89
2022/05/04 00:15:23;;;;;;;24.10;12.40;;;;;;;12.36;88.95;98777.13;5108236;28;20126;-90
2022/05/04 00:17:49;;;;;;;20.92;11.57;;;;;;;12.38;88.32;98777.91;5109686;28;21279;-91
2022/05/04 00:20:14;;;;;;;22.52;12.20;;;;;;;12.38;88.48;98772.56;5108967;28;20119;-91
2022/05/04 00:22:43;;;;;;;21.02;11.88;;;;;;;12.15;90.16;98780.50;5108156;28;20484;-89
2022/05/04 00:25:10;;;;;;;22.10;12.00;;;;;;;11.98;91.48;98771.25;5108999;28;20092;-91
2022/05/04 00:27:37;;;;;;;22.38;12.65;;;;;;;12.03;90.18;98773.78;5109009;28;20093;-90
2022/05/04 00:30:03;;;;;;;22.48;11.77;;;;;;;11.95;90.77;98770.47;5108810;28;20044;-91
2022/05/04 00:32:29;;;;;;;20.52;11.63;;;;;;;11.91;90.72;98767.06;5109219;28;20058;-90
2022/05/04 00:34:55;;;;;;;25.17;12.35;;;;;;;11.77;92.07;98762.13;5109230;28;20036;-91
2022/05/04 00:37:21;;;;;;;21.65;12.13;;;;;;;11.83;91.28;98761.06;5109274;28;20405;-89
2022/05/04 00:39:48;;;;;;;22.55;11.75;;;;;;;11.88;90.68;98756.50;5109562;28;20097;-90
2022/05/04 00:42:17;;;;;;;22.52;11.80;;;;;;;11.92;90.53;98758.13;5109255;28;20036;-90
2022/05/04 00:44:46;;;;;;;21.08;10.93;;;;;;;11.83;90.95;98756.59;5108782;28;20109;-89
2022/05/04 00:47:12;;;;;;;20.35;11.32;;;;;;;11.71;91.21;98762.34;5108260;28;20048;-91
2022/05/04 00:49:39;;;;;;;19.70;11.48;;;;;;;11.55;92.63;98759.28;5108523;28;20048;-90
2022/05/04 00:52:05;;;;;;;19.95;11.85;;;;;;;11.56;92.08;98750.38;5109158;28;20039;-91
2022/05/04 00:54:32;;;;;;;22.13;11.55;;;;;;;11.56;93.21;98763.69;5107896;28;20040;-90
2022/05/04 00:57:00;;;;;;;21.55;11.93;;;;;;;11.40;93.79;98746.44;5108562;28;20032;-90
2022/05/04 00:59:27;;;;;;;20.13;12.00;;;;;;;11.44;93.23;98762.28;5097346;28;20048;-91
2022/05/04 01:01:53;;;;;;;19.95;11.82;;;;;;;11.36;94.24;98755.44;5094793;28;20070;-90
2022/05/04 01:04:19;;;;;;;19.60;11.30;;;;;;;11.35;93.79;98756.38;5094517;28;20085;-90
2022/05/04 01:06:46;;;;;;;19.52;10.68;;;;;;;11.31;93.99;98763.56;5095116;28;20044;-91
2022/05/04 01:09:12;;;;;;;16.73;10.23;;;;;;;11.32;93.53;98762.66;5094317;28;20032;-90
2022/05/04 01:11:38;;;;;;;22.58;11.55;;;;;;;11.23;94.03;98760.25;5094865;28;20077;-92
2022/05/04 01:14:06;;;;;;;19.58;11.05;;;;;;;11.21;94.47;98768.31;5094303;28;20044;-93
2022/05/04 01:16:34;;;;;;;19.07;11.43;;;;;;;11.20;94.54;98771.00;5094325;28;20469;-91
2022/05/04 01:19:00;;;;;;;21.35;11.38;;;;;;;11.22;95.02;98786.00;5094393;28;20043;-93
2022/05/04 01:21:26;;;;;;;20.95;11.40;;;;;;;11.08;95.31;98758.91;5094191;28;20124;-92
2022/05/04 01:23:54;;;;;;;20.77;11.27;;;;;;;11.07;96.10;98766.03;5094008;28;20040;-90
2022/05/04 01:26:20;;;;;;;19.95;11.48;;;;;;;11.05;95.20;98773.19;5092437;28;20444;-91
2022/05/04 01:28:47;;;;;;;19.95;11.57;;;;;;;11.13;94.81;98793.41;5094259;28;20036;-90
2022/05/04 01:31:13;;;;;;;19.20;10.95;;;;;;;11.09;96.55;98796.13;5094213;28;20123;-91
2022/05/04 01:33:40;;;;;;;16.88;10.40;;;;;;;10.95;96.17;98781.47;5094668;28;20075;-92
2022/05/04 01:36:07;;;;;;;19.13;11.27;;;;;;;11.05;95.33;98799.81;5094176;28;20048;-91
2022/05/04 01:38:33;;;;;;;20.20;11.50;;;;;;;10.80;96.26;98783.69;5092196;28;20036;-91
2022/05/04 01:41:00;;;;;;;22.20;12.38;;;;;;;10.89;96.96;98809.16;5093822;28;20042;-90
2022/05/04 01:43:26;;;;;;;21.92;10.75;;;;;;;10.78;96.84;98784.59;5091523;28;20109;-90
2022/05/04 01:45:52;;;;;;;19.33;11.30;;;;;;;10.83;97.33;98798.66;5093301;28;20040;-90
2022/05/04 01:48:18;;;;;;;18.27;10.57;;;;;;;10.82;97.03;98797.81;5093439;28;20036;-90
2022/05/04 01:50:44;;;;;;;20.65;12.10;;;;;;;10.78;97.46;98800.56;5093793;28;20040;-92
2022/05/04 01:53:10;;;;;;;19.77;11.38;;;;;;;10.80;97.72;98804.06;5093324;28;20044;-91
2022/05/04 01:55:36;;;;;;;18.73;11.10;;;;;;;10.75;98.31;98801.53;5093582;28;20062;-90
2022/05/04 01:58:04;;;;;;;21.88;12.95;;;;;;;10.63;98.14;98780.59;5094271;28;20028;-90
2022/05/04 02:00:30;;;;;;;23.63;12.30;;;;;;;10.58;97.77;98779.84;5093862;28;20028;-92
2022/05/04 02:02:56;;;;;;;21.98;12.40;;;;;;;10.64;98.63;98801.81;5093889;28;20115;-89
2022/05/04 02:05:22;;;;;;;21.25;11.23;;;;;;;10.63;98.48;98796.56;5093804;28;20047;-91
2022/05/04 02:07:48;;;;;;;21.70;13.00;;;;;;;10.54;98.86;98795.03;5092837;28;20190;-91
2022/05/04 02:10:15;;;;;;;23.00;12.10;;;;;;;10.61;99.13;98807.22;5092307;28;20044;-91
2022/05/04 02:12:42;;;;;;;22.60;12.80;;;;;;;10.65;98.93;98819.53;5093369;28;20052;-91
2022/05/04 02:15:11;;;;;;;22.58;12.80;;;;;;;10.54;99.42;98803.00;5093194;28;20044;-92
2022/05/04 02:17:37;;;;;;;;;;;;;;;10.60;99.47;98813.44;5091896;28;20087;-90
2022/05/04 02:20:04;;;;;;;27.38;13.15;;;;;;;10.42;99.25;98795.34;5093361;28;19920;-91
2022/05/04 02:22:30;;;;;;;22.52;12.82;;;;;;;10.48;99.30;98809.34;5092412;28;20113;-92
2022/05/04 02:24:56;;;;;;;20.65;12.20;;;;;;;10.43;99.89;98797.06;5092845;28;20044;-91
2022/05/04 02:27:22;;;;;;;22.50;12.00;;;;;;;10.47;99.91;98812.91;5092390;28;20036;-92
2022/05/04 02:29:48;;;;;;;25.50;12.82;;;;;;;10.41;99.74;98797.13;5092987;28;20040;-92
2022/05/04 02:32:15;;;;;;;20.92;12.90;;;;;;;10.45;100.00;98798.78;5092818;28;20056;-89
2022/05/04 02:40:39;;;;;;;21.05;12.20;;;;;;;10.49;100.00;98818.19;5088760;27;20367;-90
2022/05/04 02:43:07;;;;;;;25.77;13.40;;;;;;;10.48;100.00;98809.34;5089564;28;20052;-91
2022/05/04 02:45:33;;;;;;;23.38;12.52;;;;;;;10.56;100.00;98819.78;5089790;28;20036;-91
2022/05/04 02:47:58;;;;;;;20.95;12.13;;;;;;;10.53;99.97;98818.97;5089217;28;20042;-91
2022/05/04 02:50:24;;;;;;;22.20;12.68;;;;;;;10.51;100.00;98818.16;5089465;28;20119;-91
2022/05/04 02:52:50;;;;;;;21.00;12.05;;;;;;;10.51;100.00;98820.81;5089421;28;20043;-91
2022/05/04 02:55:16;;;;;;;21.17;12.48;;;;;;;10.44;100.00;98818.31;5089268;28;20519;-91
2022/05/04 02:57:43;;;;;;;21.17;11.32;;;;;;;10.45;100.00;98811.19;5089635;28;20045;-91
2022/05/04 03:00:10;;;;;;;24.15;13.13;;;;;;;10.45;100.00;98804.13;5089293;28;20568;-91
2022/05/04 03:02:36;;;;;;;22.02;12.70;;;;;;;10.55;100.00;98809.19;5089309;28;20044;-92
2022/05/04 03:05:05;;;;;;;22.00;12.15;;;;;;;10.48;100.00;98796.03;5088918;28;20089;-91
2022/05/04 03:07:31;;;;;;;24.13;13.70;;;;;;;10.58;100.00;98803.75;5088946;28;20036;-92
2022/05/04 03:09:58;;;;;;;20.38;12.30;;;;;;;10.74;100.00;98817.56;5088957;28;20094;-90
2022/05/04 03:12:25;;;;;;;21.95;12.30;;;;;;;10.71;100.00;98807.84;5089207;28;20049;-92
2022/05/04 03:14:52;;;;;;;24.38;12.20;;;;;;;10.58;100.00;98788.72;5088921;28;20560;-91
2022/05/04 03:17:18;;;;;;;21.80;12.82;;;;;;;10.71;100.00;98805.19;5088852;28;20119;-92
2022/05/04 03:19:45;;;;;;;23.10;12.90;;;;;;;10.73;100.00;98818.44;5088922;28;20051;-92
2022/05/04 03:22:11;;;;;;;22.10;12.13;;;;;;;10.63;100.00;98805.41;5088857;28;20129;-92
2022/05/04 03:24:38;;;;;;;20.98;11.88;;;;;;;10.65;100.00;98810.69;5086628;28;20389;-91
2022/05/04 03:27:05;;;;;;;22.67;13.38;;;;;;;10.58;100.00;98804.66;5087917;28;20066;-91
2022/05/04 03:29:30;;;;;;;22.38;12.52;;;;;;;10.53;100.00;98816.31;5088748;28;20474;-92
2022/05/04 03:31:58;;;;;;;20.15;11.95;;;;;;;10.50;100.00;98819.94;5089195;28;20036;-92
2022/05/04 03:34:23;;;;;;;20.45;11.63;;;;;;;10.42;100.00;98820.13;5089208;28;20044;-90
2022/05/04 03:36:49;;;;;;;23.75;12.30;;;;;;;10.39;100.00;98830.84;5088585;28;20115;-91
2022/05/04 03:39:15;;;;;;;24.33;12.10;;;;;;;10.21;100.00;98808.25;5087598;28;20036;-92
2022/05/04 03:41:41;;;;;;;25.73;13.57;;;;;;;10.21;100.00;98818.88;5088088;28;20040;-93
2022/05/04 03:44:07;;;;;;;19.88;12.27;;;;;;;10.21;100.00;98833.91;5087343;28;20055;-92
2022/05/04 03:46:42;;;;;;;21.25;11.90;;;;;;;10.06;100.00;98822.78;5088411;28;20060;-91
2022/05/04 03:49:09;;;;;;;22.65;12.65;;;;;;;10.07;100.00;98842.22;5084821;28;20032;-92
2022/05/04 03:51:35;;;;;;;23.58;13.40;;;;;;;10.08;100.00;98849.28;5077324;28;20041;-90
2022/05/04 03:54:01;;;;;;;26.52;13.95;;;;;;;10.07;100.00;98855.53;5075321;28;20128;-91
2022/05/04 03:56:26;;;;;;;30.52;15.18;;;;;;;9.87;100.00;98832.09;5075225;28;20036;-92
2022/05/04 03:58:52;;;;;;;30.70;14.57;;;;;;;10.02;100.00;98862.75;5074802;28;20493;-91
2022/05/04 04:01:18;;;;;;;26.90;14.68;;;;;;;9.94;100.00;98846.97;5074927;28;20540;-91
2022/05/04 04:03:44;;;;;;;28.70;14.05;;;;;;;10.01;100.00;98855.66;5075331;28;20398;-91
2022/05/04 04:06:12;;;;;;;27.25;14.73;;;;;;;9.98;100.00;98850.44;5075175;28;20036;-91
2022/05/04 04:08:38;;;;;;;25.42;13.77;;;;;;;9.91;100.00;98847.03;5074876;28;20047;-92
2022/05/04 04:11:04;;;;;;;26.15;14.52;;;;;;;10.04;100.00;98863.53;5074674;28;20036;-91
2022/05/04 04:13:30;;;;;;;29.67;14.75;;;;;;;10.03;100.00;98859.16;5074680;28;20367;-92
2022/05/04 04:15:56;;;;;;;26.75;15.07;;;;;;;10.12;100.00;98866.91;5074880;28;20036;-91
2022/05/04 04:18:23;;;;;;;26.25;14.27;;;;;;;10.28;100.00;98870.94;5074298;28;20040;-90
2022/05/04 04:23:50;;;;;;;29.42;15.35;;;;;;;10.36;100.00;98870.78;5088257;27;20377;-92
2022/05/04 04:26:16;;;;;;;31.77;15.95;;;;;;;10.43;100.00;98868.84;5089386;28;20059;-93
2022/05/04 04:28:42;;;;;;;27.90;15.18;;;;;;;10.40;100.00;98864.47;5089826;28;20106;-92
2022/05/04 04:31:09;;;;;;;26.67;13.93;;;;;;;10.49;100.00;98866.03;5089690;28;20064;-92
2022/05/04 04:33:35;;;;;;;27.92;14.68;;;;;;;10.58;100.00;98884.44;5089773;28;20063;-92
2022/05/04 04:36:01;;;;;;;28.67;14.88;;;;;;;10.61;100.00;98886.13;5089696;28;20486;-91
2022/05/04 04:38:28;;;;;;;27.77;14.75;;;;;;;10.58;100.00;98884.44;5089577;28;20024;-92
2022/05/04 04:40:56;;;;;;;31.50;15.50;;;;;;;10.45;100.00;98862.59;5089540;28;20036;-91
2022/05/04 04:43:21;;;;;;;26.27;14.25;;;;;;;10.52;100.00;98867.75;5089418;28;20135;-92
2022/05/04 04:45:49;;;;;;;26.10;14.23;;;;;;;10.52;100.00;98873.06;5089566;28;20207;-91
2022/05/04 04:48:16;;;;;;;28.98;15.00;;;;;;;10.51;99.92;98881.97;5090002;28;20048;-91
2022/05/04 04:50:42;;;;;;;30.08;15.23;;;;;;;10.60;99.60;98893.22;5088565;28;20197;-92
2022/05/04 04:53:08;;;;;;;25.48;14.50;;;;;;;10.50;98.52;98875.78;5089819;28;20521;-92
2022/05/04 04:55:34;;;;;;;30.65;15.50;;;;;;;10.68;99.73;98903.69;5089138;28;20047;-92
2022/05/04 04:58:01;;;;;;;27.92;13.93;;;;;;;10.78;98.91;98886.59;5089635;28;20036;-90
2022/05/04 05:00:28;;;;;;;26.45;14.18;;;;;;;10.78;98.49;98891.91;5088016;28;20036;-92
2022/05/04 05:02:54;;;;;;;25.67;13.98;;;;;;;11.03;95.86;98896.56;5088918;28;20766;-92
2022/05/04 05:05:20;;;;;;;25.55;14.30;;;;;;;11.18;95.22;98895.28;5089065;28;20036;-90
2022/05/04 05:07:46;;;;;;;26.30;13.77;;;;;;;11.17;94.44;98889.09;5088862;28;20090;-89
2022/05/04 05:10:12;;;;;;;25.42;14.40;;;;;;;11.24;94.50;98901.31;5088227;28;20444;-92
2022/05/04 05:12:38;;;;;;;28.92;14.32;;;;;;;11.31;94.14;98902.00;5089253;28;20393;-92
2022/05/04 05:18:06;;;;;;;27.45;14.75;;;;;;;11.50;93.09;98903.22;5130201;27;21094;-92
2022/05/04 05:20:32;;;;;;;25.25;14.55;;;;;;;11.69;92.32;98908.03;5130367;28;20051;-91
2022/05/04 05:22:58;;;;;;;21.80;12.90;;;;;;;11.71;91.54;98907.06;5132011;27;20507;-91
2022/05/04 05:25:24;;;;;;;22.50;12.95;;;;;;;11.90;90.89;98906.53;5130358;28;20039;-92
2022/05/04 05:27:50;;;;;;;26.05;14.60;;;;;;;11.93;91.26;98909.13;5130287;28;20045;-92
2022/05/04 05:30:16;;;;;;;27.55;14.52;;;;;;;12.15;91.63;98913.81;5130385;28;20084;-90
2022/05/04 05:32:42;;;;;;;26.77;14.23;;;;;;;12.57;87.22;98927.53;5129839;28;20039;-91
2022/05/04 05:35:09;;;;;;;24.58;14.15;;;;;;;12.68;84.69;98887.16;5130072;28;20088;-90
2022/05/04 05:37:35;;;;;;;24.73;14.68;;;;;;;12.97;82.54;98910.22;5130444;28;20122;-92
2022/05/04 05:40:01;;;;;;;25.05;15.02;;;;;;;13.25;81.34;98917.22;5130422;28;20126;-91
2022/05/04 05:42:28;;;;;;;28.23;14.20;;;;;;;13.56;79.75;98919.72;5130336;28;20031;-92
2022/05/04 05:44:54;;;;;;;27.00;15.05;;;;;;;13.75;78.90;98912.75;5130947;28;20047;-93
2022/05/04 05:47:20;;;;;;;27.60;15.57;;;;;;;14.00;78.67;98913.63;5131087;28;20088;-92
2022/05/04 05:49:46;;;;;;;32.95;18.05;;;;;;;14.17;77.80;98928.06;5130636;28;20449;-92
2022/05/04 05:52:13;;;;;;;30.80;16.58;;;;;;;14.33;77.47;98908.72;5131247;28;20035;-91
2022/05/04 05:54:38;;;;;;;29.20;16.05;;;;;;;14.62;76.00;98917.44;5130919;28;20460;-93
2022/05/04 05:57:05;;;;;;;32.83;15.98;;;;;;;14.92;74.37;98921.50;5130675;28;20063;-92
2022/05/04 05:59:31;;;;;;;31.83;15.23;;;;;;;15.07;73.67;98911.06;5130602;28;20118;-92
2022/05/04 06:01:57;;;;;;;27.45;15.50;;;;;;;15.37;72.19;98919.56;5130417;28;20449;-92
2022/05/04 06:04:22;;;;;;;29.98;16.15;;;;;;;15.54;71.57;98917.00;5130380;28;20039;-94
2022/05/04 06:06:48;;;;;;;27.10;16.13;;;;;;;15.63;70.87;98906.81;5130739;28;20431;-93
2022/05/04 06:09:15;;;;;;;27.90;14.40;;;;;;;15.79;69.81;98905.22;5130662;28;20051;-93
2022/05/04 06:11:41;;;;;;;28.95;14.73;;;;;;;16.06;69.83;98927.19;5130565;28;20042;-92
2022/05/04 06:14:07;;;;;;;35.67;15.90;;;;;;;16.25;68.23;98934.38;5129685;28;20039;-93
2022/05/04 06:16:33;;;;;;;33.45;16.17;;;;;;;16.53;67.21;98932.09;5130195;28;20042;-93
2022/05/04 06:18:58;;;;;;;28.70;16.58;;;;;;;16.32;67.30;98919.72;5130289;28;20069;-94
2022/05/04 06:21:24;;;;;;;27.20;15.45;;;;;;;16.60;66.21;98933.53;5130448;28;20134;-94
2022/05/04 06:23:50;;;;;;;30.73;14.95;;;;;;;16.92;64.28;98940.97;5130426;28;20445;-93
2022/05/04 06:26:20;;;;;;;25.23;14.18;;;;;;;16.92;64.35;98941.84;5130294;28;20568;-93
2022/05/04 06:28:46;;;;;;;25.02;14.45;;;;;;;17.08;63.10;98943.75;5118816;28;20043;-93
2022/05/04 06:34:11;;;;;;;25.45;13.40;;;;;;;17.43;61.48;98955.34;5131969;27;20367;-91
2022/05/04 06:36:39;;;;;;;24.60;13.55;;;;;;;17.51;61.31;98950.47;5131724;28;20129;-92
2022/05/04 06:39:06;;;;;;;25.17;13.35;;;;;;;17.54;60.44;98941.34;5132281;28;20039;-92
2022/05/04 06:41:31;;;;;;;28.95;15.75;;;;;;;17.57;60.42;98943.91;5131298;28;20044;-92
2022/05/04 06:43:57;;;;;;;27.63;14.88;;;;;;;17.54;59.94;98934.16;5131439;28;20062;-92
2022/05/04 06:46:23;;;;;;;27.17;14.77;;;;;;;17.16;62.42;98937.03;5130597;28;20085;-93
2022/05/04 06:48:49;;;;;;;26.02;14.65;;;;;;;17.34;62.08;98956.72;5131221;28;20039;-93
2022/05/04 06:51:16;;;;;;;30.02;15.57;;;;;;;17.24;62.16;98936.66;5131142;28;21392;-93
2022/05/04 06:53:42;;;;;;;25.90;14.77;;;;;;;17.30;61.22;98936.31;5130827;28;20065;-91
2022/05/04 06:56:08;;;;;;;29.02;15.05;;;;;;;17.18;63.28;98945.88;5130374;28;20039;-92
2022/05/04 06:58:34;;;;;;;34.55;15.65;;;;;;;17.29;62.83;98957.91;5130365;27;20039;-94
2022/05/04 07:01:00;;;;;;;27.05;16.13;;;;;;;17.32;61.24;98933.56;5131266;28;20036;-92
2022/05/04 07:03:26;;;;;;;34.25;17.08;;;;;;;17.48;61.06;98945.25;5130908;28;20114;-90
2022/05/04 07:05:52;;;;;;;28.23;15.77;;;;;;;17.71;60.49;98949.41;5130156;28;20039;-91
2022/05/04 07:08:19;;;;;;;29.90;16.65;;;;;;;17.99;60.33;98958.72;5133104;28;20064;-92
2022/05/04 07:10:45;;;;;;;29.50;15.77;;;;;;;18.15;60.04;98954.25;5130247;28;20032;-91
2022/05/04 07:13:11;;;;;;;23.58;14.73;;;;;;;18.43;58.49;98955.38;5130072;28;20046;-90
2022/05/04 07:15:36;;;;;;;29.63;15.65;;;;;;;18.57;57.70;98941.16;5130071;28;20123;-94
2022/05/04 07:18:04;;;;;;;29.67;15.82;;;;;;;18.36;57.79;98952.16;5129439;28;20039;-90
2022/05/04 07:20:30;;;;;;;29.05;14.85;;;;;;;18.13;59.76;98964.22;5128823;28;20042;-92
2022/05/04 07:22:55;;;;;;;28.08;15.38;;;;;;;18.11;59.94;98949.09;5130298;28;20039;-92
2022/05/04 07:25:23;;;;;;;26.38;13.63;;;;;;;18.15;59.38;98964.13;5130623;27;20043;-90
2022/05/04 07:27:49;;;;;;;31.42;17.00;;;;;;;17.34;60.52;98953.16;5128065;28;20461;-91
2022/05/04 07:30:14;;;;;;;26.38;14.95;;;;;;;17.60;61.90;98949.97;5130169;28;20067;-91
2022/05/04 07:32:40;;;;;;;27.50;15.02;;;;;;;18.00;60.38;98973.88;5129107;28;20755;-93
2022/05/04 07:35:08;;;;;;;23.42;13.40;;;;;;;18.13;59.80;98953.47;5129942;28;20093;-93
2022/05/04 07:37:34;;;;;;;28.35;16.25;;;;;;;17.63;60.54;98944.44;5129849;28;20043;-91
2022/05/04 07:43:00;;;;;;;26.17;15.45;;;;;;;17.60;61.43;98970.63;5087587;27;20374;-89
2022/05/04 07:45:26;;;;;;;27.95;15.27;;;;;;;17.53;61.69;98964.69;5089433;28;20109;-91
2022/05/04 07:47:52;;;;;;;25.80;14.68;;;;;;;17.91;61.42;98974.38;5089836;28;20037;-92
2022/05/04 07:50:17;;;;;;;24.35;13.70;;;;;;;18.44;60.15;98966.06;5090096;28;20062;-91
2022/05/04 07:52:43;;;;;;;22.95;14.52;;;;;;;18.82;57.75;98954.97;5090212;28;20033;-93
2022/05/04 07:55:10;;;;;;;24.38;14.88;;;;;;;18.59;57.12;98942.78;5090776;28;20123;-92
2022/05/04 07:57:36;;;;;;;28.13;15.25;;;;;;;18.42;57.58;98948.25;5089513;28;20124;-94
2022/05/04 08:06:04;;;;;;;24.63;14.63;;;;;;;17.60;60.28;98957.16;5113808;27;20382;-92
2022/05/04 08:08:29;;;;;;;25.40;13.82;;;;;;;18.24;59.65;98967.19;5089092;28;20040;-92
2022/05/04 08:10:56;;;;;;;23.00;13.35;;;;;;;18.52;58.18;98957.56;5088966;28;20033;-92
2022/05/04 08:13:23;;;;;;;26.55;12.13;;;;;;;19.00;57.39;98946.78;5089055;28;20051;-93
2022/05/04 08:15:48;;;;;;;23.38;13.07;;;;;;;19.45;55.25;98942.28;5088941;28;20045;-92
2022/05/04 08:18:17;;;;;;;24.38;13.57;;;;;;;19.90;53.31;98954.78;5089719;28;20032;-91
2022/05/04 08:20:43;;;;;;;24.30;13.83;;;;;;;19.81;52.78;98935.63;5089635;28;20448;-91
2022/05/04 08:23:10;;;;;;;22.17;11.88;;;;;;;19.94;52.93;98931.19;5089380;28;20281;-91
2022/05/04 08:25:36;;;;;;;25.70;13.98;;;;;;;20.16;51.23;98937.94;5089286;28;20039;-90
2022/05/04 08:28:02;;;;;;;22.48;14.02;;;;;;;20.05;52.08;98955.66;5089447;28;20032;-90
2022/05/04 08:30:28;;;;;;;22.48;13.75;;;;;;;20.11;52.24;98951.72;5089357;28;20401;-94
2022/05/04 08:32:53;;;;;;;23.85;13.25;;;;;;;20.25;50.89;98954.38;5089278;28;20034;-92
2022/05/04 08:35:19;;;;;;;21.45;12.88;;;;;;;20.45;50.81;98944.13;5088158;28;20036;-92
2022/05/04 08:37:46;;;;;;;26.23;12.82;;;;;;;20.75;51.11;98946.69;5088294;28;20044;-93
2022/05/04 08:40:13;;;;;;;20.38;12.40;;;;;;;20.88;49.48;98935.94;5088694;28;20093;-92
2022/05/04 08:42:41;;;;;;;19.58;12.48;;;;;;;20.80;49.38;98946.44;5088712;28;20044;-90
2022/05/04 08:45:11;;;;;;;22.05;11.45;;;;;;;20.73;49.15;98951.34;5089301;28;20032;-90
2022/05/04 08:47:39;;;;;;;20.23;11.80;;;;;;;20.85;47.32;98960.50;5088695;28;20043;-90
2022/05/04 08:50:09;;;;;;;22.02;12.55;;;;;;;20.57;49.16;98951.50;5088905;28;20036;-90
2022/05/04 08:52:37;;;;;;;25.65;12.68;;;;;;;20.00;51.28;98935.34;5088632;28;20047;-93
2022/05/04 08:55:04;;;;;;;21.13;11.67;;;;;;;19.85;51.06;98945.25;5087909;28;20071;-90
2022/05/04 08:57:32;;;;;;;18.67;11.50;;;;;;;19.84;50.93;98930.00;5086532;28;20044;-90
2022/05/04 08:59:57;;;;;;;18.10;11.45;;;;;;;20.18;49.86;98944.97;5088249;28;20506;-92
2022/05/04 09:02:23;;;;;;;20.63;12.38;;;;;;;20.10;50.95;98941.88;5088615;28;20036;-91
2022/05/04 09:04:49;;;;;;;23.08;13.02;;;;;;;20.38;49.90;98942.81;5088691;28;20821;-91
2022/05/04 09:07:22;;;;;;;22.98;13.23;;;;;;;20.69;48.76;98958.81;5088728;28;20393;-91
2022/05/04 09:09:47;;;;;;;21.17;12.93;;;;;;;20.65;49.62;98954.56;5088447;28;20040;-93
2022/05/04 09:12:15;;;;;;;22.58;12.77;;;;;;;20.78;48.69;98957.34;5088778;28;20036;-92
2022/05/04 09:14:44;;;;;;;19.75;11.82;;;;;;;20.44;49.42;98942.41;5086822;28;20375;-90
2022/05/04 09:17:10;;;;;;;;;;;;;;;20.49;48.93;98956.47;5592167;22;20058;-92
2022/05/04 09:19:41;;;;;;;21.30;11.80;;;;;;;20.80;48.18;98949.13;5090987;28;19920;-91
2022/05/04 09:22:16;;;;;;;17.52;10.73;;;;;;;20.91;47.36;98954.69;5094478;28;20040;-90
2022/05/04 09:24:44;;;;;;;18.90;11.02;;;;;;;20.97;47.16;98948.88;5094358;28;20462;-90
2022/05/04 09:27:09;;;;;;;19.63;11.50;;;;;;;21.11;47.70;98950.63;5094173;28;20051;-92
2022/05/04 09:29:39;;;;;;;20.05;12.02;;;;;;;21.27;46.81;98947.75;5095089;28;20481;-92
2022/05/04 09:32:14;;;;;;;18.15;11.27;;;;;;;21.38;46.03;98941.59;5094442;28;20043;-92
2022/05/04 09:34:40;;;;;;;18.65;11.52;;;;;;;20.96;48.55;98933.59;5093585;28;20051;-92
2022/05/04 09:46:17;;;;;;;19.90;12.05;;;;;;;20.44;49.68;98928.91;5109850;27;20388;-92
2022/05/04 09:48:43;;;;;;;20.90;11.77;;;;;;;20.76;49.98;98928.69;5108030;28;20079;-90
2022/05/04 09:51:09;;;;;;;17.98;11.35;;;;;;;21.03;48.32;98916.00;5110234;28;20470;-92
2022/05/04 09:53:36;;;;;;;16.48;10.68;;;;;;;21.20;47.86;98914.84;5109703;28;20046;-94
2022/05/04 09:56:03;;;;;;;19.05;11.05;;;;;;;21.05;45.47;98924.00;5109375;28;20072;-91
2022/05/04 09:58:30;;;;;;;22.23;9.70;;;;;;;20.82;47.68;98917.44;5108862;28;20038;-89
2022/05/04 10:00:58;;;;;;;21.98;11.38;;;;;;;20.24;49.69;98925.66;5110230;28;20040;-94
2022/05/04 10:03:26;;;;;;;19.85;11.10;;;;;;;20.57;49.33;98927.19;5108700;28;20878;-92
2022/05/04 10:05:54;;;;;;;19.80;10.53;;;;;;;20.97;47.30;98912.84;5108030;28;20619;-91
2022/05/04 10:08:21;;;;;;;19.53;11.33;;;;;;;20.43;48.37;98921.78;5108937;28;20765;-91
2022/05/04 10:10:48;;;;;;;17.02;9.80;;;;;;;20.70;47.07;98924.53;5109096;28;20108;-91
2022/05/04 10:13:16;;;;;;;14.52;9.82;;;;;;;20.75;45.82;98916.13;5109242;28;20050;-91
2022/05/04 10:15:43;;;;;;;19.83;10.30;;;;;;;20.56;46.57;98895.69;5110130;28;20046;-92
2022/05/04 10:18:17;;;;;;;14.60;9.98;;;;;;;21.12;46.14;98904.56;5108716;28;20118;-93
2022/05/04 10:21:00;;;;;;;15.02;9.93;;;;;;;21.67;45.35;98904.44;5107033;28;20044;-92
2022/05/04 10:23:29;;;;;;;18.65;11.10;;;;;;;21.00;46.06;98891.03;5108705;28;20036;-92
2022/05/04 10:25:57;;;;;;;18.25;11.75;;;;;;;20.43;47.99;98890.25;5107692;28;20035;-92
2022/05/04 10:28:23;;;;;;;17.33;10.85;;;;;;;20.46;48.67;98899.97;5108578;28;20036;-92
2022/05/04 10:30:55;;;;;;;15.98;10.05;;;;;;;20.85;47.58;98874.84;5109428;28;20036;-92
2022/05/04 10:33:23;;;;;;;16.30;10.27;;;;;;;21.38;46.21;98899.19;5108308;28;20027;-93
2022/05/04 10:35:51;;;;;;;14.88;9.93;;;;;;;21.34;46.64;98878.75;5108694;28;20043;-91
2022/05/04 10:38:18;;;;;;;14.57;9.27;;;;;;;21.83;45.70;98869.03;5109040;28;20036;-91
2022/05/04 10:40:47;;;;;;;18.50;10.10;;;;;;;22.13;44.79;98874.91;5108812;28;20505;-92
2022/05/04 10:43:16;;;;;;;17.20;10.63;;;;;;;21.98;45.37;98899.56;5108402;28;20051;-92
2022/05/04 10:45:43;;;;;;;15.25;9.93;;;;;;;22.36;44.20;98880.53;5108166;28;20135;-92
2022/05/04 10:48:23;;;;;;;15.32;10.02;;;;;;;22.54;43.20;98884.59;5108885;28;20511;-91
2022/05/04 10:50:52;;;;;;;18.60;10.13;;;;;;;22.64;43.39;98870.34;5107816;28;20043;-92
2022/05/04 10:53:19;;;;;;;19.92;10.98;;;;;;;22.78;42.35;98867.47;5109093;28;20035;-94
2022/05/04 10:55:55;;;;;;;14.05;9.70;;;;;;;22.43;42.62;98868.25;5104861;28;20123;-94
2022/05/04 10:58:31;;;;;;;14.38;9.85;;;;;;;22.42;43.88;98852.97;5095581;28;20040;-91
2022/05/04 11:01:04;;;;;;;15.40;9.95;;;;;;;22.76;42.46;98853.16;5095594;28;20386;-92
2022/05/04 11:03:33;;;;;;;15.10;9.48;;;;;;;22.62;43.05;98854.22;5095183;28;20723;-92
2022/05/04 11:06:07;;;;;;;13.45;9.32;;;;;;;22.92;42.23;98855.56;5095728;28;20127;-93
2022/05/04 11:08:35;;;;;;;16.60;10.48;;;;;;;23.07;41.18;98843.56;5094647;28;20036;-91
2022/05/04 11:11:01;;;;;;;15.68;10.57;;;;;;;23.07;40.66;98851.69;5096293;28;20044;-92
2022/05/04 11:13:29;;;;;;;14.25;9.27;;;;;;;23.21;40.61;98836.22;5096169;28;20058;-93
2022/05/04 11:15:57;;;;;;;13.30;9.73;;;;;;;23.27;40.34;98850.16;5096554;28;20040;-93
2022/05/04 11:18:24;;;;;;;15.20;9.40;;;;;;;23.42;40.63;98848.09;5096815;28;20065;-94
2022/05/04 11:20:50;;;;;;;13.35;9.07;;;;;;;23.71;39.73;98848.47;5095793;28;20451;-93
2022/05/04 11:23:24;;;;;;;12.60;9.23;;;;;;;23.69;40.11;98852.31;5095659;28;20401;-94
2022/05/04 11:25:50;;;;;;;13.98;9.73;;;;;;;23.57;39.70;98829.72;5096461;28;20049;-92
2022/05/04 11:28:18;;;;;;;17.08;10.27;;;;;;;22.12;42.72;98823.56;5095997;28;20051;-93
2022/05/04 11:30:44;;;;;;;13.47;9.77;;;;;;;21.91;42.67;98828.72;5094475;28;20042;-91
2022/05/04 11:33:13;;;;;;;13.73;9.75;;;;;;;22.27;43.13;98849.59;5095213;28;20131;-92
2022/05/04 11:35:38;;;;;;;;;;;;;;;22.27;43.86;98854.09;5095393;28;20063;-91
2022/05/04 11:38:04;;;;;;;17.38;9.82;;;;;;;22.17;43.96;98851.19;5095328;28;19947;-91
2022/05/04 11:40:32;;;;;;;17.00;10.25;;;;;;;21.62;45.85;98849.75;5095798;28;20036;-91
2022/05/04 11:42:58;;;;;;;15.30;10.13;;;;;;;21.31;46.94;98849.19;5092927;28;20028;-91
2022/05/04 11:45:24;;;;;;;17.00;10.32;;;;;;;21.54;47.24;98856.59;5094969;28;20066;-93
2022/05/04 11:47:51;;;;;;;14.77;10.52;;;;;;;21.17;47.10;98857.44;5095967;28;20040;-93